sensor_id;sensor_type;location;lat;lon;timestamp;pressure;altitude;pressure_sealevel;temperature;humidity
19795;BME280;10057;59.402;17.866;2024-02-23T00:00:01;98917.34;;;4.17;89.09
19795;BME280;10057;59.402;17.866;2024-02-23T00:02:32;98913.03;;;4.16;89.21
19795;BME280;10057;59.402;17.866;2024-02-23T00:04:58;98912.19;;;4.15;89.22
19795;BME280;10057;59.402;17.866;2024-02-23T00:07:25;98916.59;;;4.15;89.02
19795;BME280;10057;59.402;17.866;2024-02-23T00:09:52;98913.09;;;4.14;89.30
19795;BME280;10057;59.402;17.866;2024-02-23T00:12:18;98915.78;;;4.13;89.01
19795;BME280;10057;59.402;17.866;2024-02-23T00:14:45;98906.22;;;4.12;89.19
19795;BME280;10057;59.402;17.866;2024-02-23T00:17:12;98895.75;;;4.10;88.78
19795;BME280;10057;59.402;17.866;2024-02-23T00:19:39;98890.66;;;4.07;89.11
19795;BME280;10057;59.402;17.866;2024-02-23T00:22:05;98891.63;;;4.04;88.94
19795;BME280;10057;59.402;17.866;2024-02-23T00:24:34;98884.72;;;4.02;88.94
19795;BME280;10057;59.402;17.866;2024-02-23T00:27:02;98879.59;;;3.99;89.22
19795;BME280;10057;59.402;17.866;2024-02-23T00:29:29;98870.94;;;3.97;88.83
19795;BME280;10057;59.402;17.866;2024-02-23T00:31:56;98881.44;;;3.97;88.84
19795;BME280;10057;59.402;17.866;2024-02-23T00:34:22;98869.28;;;3.94;89.11
19795;BME280;10057;59.402;17.866;2024-02-23T00:36:49;98867.59;;;3.93;88.96
19795;BME280;10057;59.402;17.866;2024-02-23T00:39:16;98852.75;;;3.92;88.65
19795;BME280;10057;59.402;17.866;2024-02-23T00:41:42;98852.81;;;3.91;88.91
19795;BME280;10057;59.402;17.866;2024-02-23T00:44:09;98837.19;;;3.88;89.17
19795;BME280;10057;59.402;17.866;2024-02-23T00:46:36;98832.88;;;3.87;89.09
19795;BME280;10057;59.402;17.866;2024-02-23T00:49:02;98839.03;;;3.86;89.26
19795;BME280;10057;59.402;17.866;2024-02-23T00:51:29;98832.88;;;3.87;89.33
19795;BME280;10057;59.402;17.866;2024-02-23T00:53:56;98832.00;;;3.86;89.06
19795;BME280;10057;59.402;17.866;2024-02-23T00:56:22;98828.53;;;3.86;89.19
19795;BME280;10057;59.402;17.866;2024-02-23T00:58:58;98818.97;;;3.85;89.08
19795;BME280;10057;59.402;17.866;2024-02-23T01:01:25;98820.72;;;3.84;88.97
19795;BME280;10057;59.402;17.866;2024-02-23T01:03:53;98805.97;;;3.82;88.89
19795;BME280;10057;59.402;17.866;2024-02-23T01:06:20;98806.03;;;3.80;89.17
19795;BME280;10057;59.402;17.866;2024-02-23T01:08:46;98798.16;;;3.80;88.92
19795;BME280;10057;59.402;17.866;2024-02-23T01:11:13;98791.16;;;3.80;89.33
19795;BME280;10057;59.402;17.866;2024-02-23T01:13:40;98783.28;;;3.80;89.17
19795;BME280;10057;59.402;17.866;2024-02-23T01:16:07;98778.97;;;3.79;89.13
19795;BME280;10057;59.402;17.866;2024-02-23T01:18:34;98770.28;;;3.77;89.03
19795;BME280;10057;59.402;17.866;2024-02-23T01:21:01;98768.63;;;3.75;89.08
19795;BME280;10057;59.402;17.866;2024-02-23T01:23:28;98764.31;;;3.74;89.14
19795;BME280;10057;59.402;17.866;2024-02-23T01:25:54;98759.06;;;3.74;89.00
19795;BME280;10057;59.402;17.866;2024-02-23T01:28:21;98745.88;;;3.75;89.10
19795;BME280;10057;59.402;17.866;2024-02-23T01:30:48;98739.88;;;3.73;89.16
19795;BME280;10057;59.402;17.866;2024-02-23T01:33:14;98732.84;;;3.74;89.29
19795;BME280;10057;59.402;17.866;2024-02-23T01:35:41;98727.53;;;3.75;89.13
19795;BME280;10057;59.402;17.866;2024-02-23T01:38:08;98724.03;;;3.75;89.24
19795;BME280;10057;59.402;17.866;2024-02-23T01:40:35;98726.66;;;3.75;89.12
19795;BME280;10057;59.402;17.866;2024-02-23T01:43:03;98728.38;;;3.76;89.38
19795;BME280;10057;59.402;17.866;2024-02-23T01:45:30;98724.03;;;3.75;89.13
19795;BME280;10057;59.402;17.866;2024-02-23T01:47:58;98717.97;;;3.74;89.48
19795;BME280;10057;59.402;17.866;2024-02-23T01:50:25;98714.41;;;3.75;89.54
19795;BME280;10057;59.402;17.866;2024-02-23T01:52:54;98700.41;;;3.76;89.26
19795;BME280;10057;59.402;17.866;2024-02-23T01:55:22;98700.44;;;3.75;89.17
19795;BME280;10057;59.402;17.866;2024-02-23T01:57:49;98693.50;;;3.74;89.31
19795;BME280;10057;59.402;17.866;2024-02-23T02:00:18;98687.41;;;3.73;89.19
19795;BME280;10057;59.402;17.866;2024-02-23T02:02:47;98693.56;;;3.72;89.15
19795;BME280;10057;59.402;17.866;2024-02-23T02:05:14;98688.31;;;3.72;89.10
19795;BME280;10057;59.402;17.866;2024-02-23T02:07:41;98679.59;;;3.72;89.48
19795;BME280;10057;59.402;17.866;2024-02-23T02:10:09;98677.81;;;3.72;89.35
19795;BME280;10057;59.402;17.866;2024-02-23T02:12:36;98679.59;;;3.72;89.37
19795;BME280;10057;59.402;17.866;2024-02-23T02:15:03;98661.22;;;3.72;89.29
19795;BME280;10057;59.402;17.866;2024-02-23T02:17:30;98644.66;;;3.71;89.40
19795;BME280;10057;59.402;17.866;2024-02-23T02:20:02;98642.94;;;3.70;89.37
19795;BME280;10057;59.402;17.866;2024-02-23T02:22:33;98630.78;;;3.69;89.33
19795;BME280;10057;59.402;17.866;2024-02-23T02:25:00;98650.94;;;3.67;89.19
19795;BME280;10057;59.402;17.866;2024-02-23T02:27:26;98643.88;;;3.69;89.35
19795;BME280;10057;59.402;17.866;2024-02-23T02:29:53;98643.81;;;3.71;89.30
19795;BME280;10057;59.402;17.866;2024-02-23T02:32:20;98638.56;;;3.71;89.10
19795;BME280;10057;59.402;17.866;2024-02-23T02:34:47;98626.25;;;3.73;89.25
19795;BME280;10057;59.402;17.866;2024-02-23T02:37:13;98617.50;;;3.72;89.30
19795;BME280;10057;59.402;17.866;2024-02-23T02:39:40;98616.66;;;3.72;89.18
19795;BME280;10057;59.402;17.866;2024-02-23T02:42:07;98611.50;;;3.70;89.34
19795;BME280;10057;59.402;17.866;2024-02-23T02:44:34;98607.09;;;3.71;89.56
19795;BME280;10057;59.402;17.866;2024-02-23T02:47:00;98596.69;;;3.69;89.24
19795;BME280;10057;59.402;17.866;2024-02-23T02:49:27;98598.41;;;3.69;89.42
19795;BME280;10057;59.402;17.866;2024-02-23T02:51:54;98598.38;;;3.70;89.17
19795;BME280;10057;59.402;17.866;2024-02-23T02:54:20;98601.00;;;3.70;89.39
19795;BME280;10057;59.402;17.866;2024-02-23T02:56:47;98595.75;;;3.70;89.29
19795;BME280;10057;59.402;17.866;2024-02-23T02:59:14;98593.91;;;3.72;89.32
19795;BME280;10057;59.402;17.866;2024-02-23T03:01:41;98593.06;;;3.72;89.41
19795;BME280;10057;59.402;17.866;2024-02-23T03:04:08;98583.41;;;3.72;89.18
19795;BME280;10057;59.402;17.866;2024-02-23T03:06:35;98590.38;;;3.73;89.20
19795;BME280;10057;59.402;17.866;2024-02-23T03:09:01;98580.72;;;3.74;89.52
19795;BME280;10057;59.402;17.866;2024-02-23T03:11:29;98576.34;;;3.74;89.44
19795;BME280;10057;59.402;17.866;2024-02-23T03:13:56;98574.66;;;3.73;89.09
19795;BME280;10057;59.402;17.866;2024-02-23T03:16:22;98563.31;;;3.73;89.02
19795;BME280;10057;59.402;17.866;2024-02-23T03:18:49;98562.50;;;3.71;89.26
19795;BME280;10057;59.402;17.866;2024-02-23T03:21:16;98556.41;;;3.70;89.32
19795;BME280;10057;59.402;17.866;2024-02-23T03:23:43;98558.09;;;3.71;89.33
19795;BME280;10057;59.402;17.866;2024-02-23T03:26:11;98556.28;;;3.73;89.54
19795;BME280;10057;59.402;17.866;2024-02-23T03:28:38;98556.34;;;3.72;89.53
19795;BME280;10057;59.402;17.866;2024-02-23T03:31:05;98546.69;;;3.72;89.41
19795;BME280;10057;59.402;17.866;2024-02-23T03:33:31;98544.88;;;3.74;89.97
19795;BME280;10057;59.402;17.866;2024-02-23T03:35:58;98543.03;;;3.76;89.70
19795;BME280;10057;59.402;17.866;2024-02-23T03:38:25;98537.72;;;3.78;89.39
19795;BME280;10057;59.402;17.866;2024-02-23T03:40:54;98534.28;;;3.76;89.41
19795;BME280;10057;59.402;17.866;2024-02-23T03:43:21;98528.06;;;3.78;89.43
19795;BME280;10057;59.402;17.866;2024-02-23T03:45:47;98521.00;;;3.80;89.56
19795;BME280;10057;59.402;17.866;2024-02-23T03:48:14;98513.97;;;3.81;89.52
19795;BME280;10057;59.402;17.866;2024-02-23T03:50:41;98513.13;;;3.80;89.64
19795;BME280;10057;59.402;17.866;2024-02-23T03:53:08;98497.25;;;3.84;89.73
19795;BME280;10057;59.402;17.866;2024-02-23T03:55:34;98503.25;;;3.86;89.74
19795;BME280;10057;59.402;17.866;2024-02-23T03:58:01;98494.56;;;3.85;89.32
19795;BME280;10057;59.402;17.866;2024-02-23T04:00:28;98494.50;;;3.87;89.42
19795;BME280;10057;59.402;17.866;2024-02-23T04:02:54;98494.50;;;3.87;89.74
19795;BME280;10057;59.402;17.866;2024-02-23T04:05:24;98479.66;;;3.86;89.30
19795;BME280;10057;59.402;17.866;2024-02-23T04:07:50;98485.84;;;3.85;89.51
19795;BME280;10057;59.402;17.866;2024-02-23T04:10:17;98483.09;;;3.88;89.51
19795;BME280;10057;59.402;17.866;2024-02-23T04:12:46;98467.34;;;3.88;89.92
19795;BME280;10057;59.402;17.866;2024-02-23T04:15:13;98463.78;;;3.89;89.50
19795;BME280;10057;59.402;17.866;2024-02-23T04:17:40;98456.72;;;3.91;89.69
19795;BME280;10057;59.402;17.866;2024-02-23T04:20:08;98449.69;;;3.91;89.79
19795;BME280;10057;59.402;17.866;2024-02-23T04:22:37;98448.75;;;3.92;89.54
19795;BME280;10057;59.402;17.866;2024-02-23T04:25:04;98432.88;;;3.95;89.53
19795;BME280;10057;59.402;17.866;2024-02-23T04:27:31;98446.94;;;3.94;89.51
19795;BME280;10057;59.402;17.866;2024-02-23T04:29:58;98447.78;;;3.95;89.65
19795;BME280;10057;59.402;17.866;2024-02-23T04:32:25;98441.97;;;4.07;90.10
19795;BME280;10057;59.402;17.866;2024-02-23T04:34:52;98443.69;;;4.25;89.49
19795;BME280;10057;59.402;17.866;2024-02-23T04:37:19;98452.38;;;4.27;88.66
19795;BME280;10057;59.402;17.866;2024-02-23T04:39:46;98451.66;;;4.24;89.18
19795;BME280;10057;59.402;17.866;2024-02-23T04:42:12;98452.56;;;4.23;89.28
19795;BME280;10057;59.402;17.866;2024-02-23T04:44:41;98451.72;;;4.22;89.20
19795;BME280;10057;59.402;17.866;2024-02-23T04:47:08;98446.69;;;4.18;89.00
19795;BME280;10057;59.402;17.866;2024-02-23T04:49:35;98443.38;;;4.14;89.63
19795;BME280;10057;59.402;17.866;2024-02-23T04:52:02;98435.50;;;4.14;89.24
19795;BME280;10057;59.402;17.866;2024-02-23T04:54:29;98428.63;;;4.12;89.61
19795;BME280;10057;59.402;17.866;2024-02-23T04:56:55;98422.56;;;4.10;89.57
19795;BME280;10057;59.402;17.866;2024-02-23T04:59:22;98421.59;;;4.12;89.73
19795;BME280;10057;59.402;17.866;2024-02-23T05:01:49;98426.84;;;4.12;89.78
19795;BME280;10057;59.402;17.866;2024-02-23T05:04:16;98423.38;;;4.12;89.49
19795;BME280;10057;59.402;17.866;2024-02-23T05:06:42;98423.38;;;4.12;89.68
19795;BME280;10057;59.402;17.866;2024-02-23T05:09:10;98418.97;;;4.12;89.95
19795;BME280;10057;59.402;17.866;2024-02-23T05:11:39;98419.81;;;4.13;89.41
19795;BME280;10057;59.402;17.866;2024-02-23T05:14:05;98414.56;;;4.13;89.96
19795;BME280;10057;59.402;17.866;2024-02-23T05:16:32;98409.31;;;4.13;89.67
19795;BME280;10057;59.402;17.866;2024-02-23T05:18:59;98417.13;;;4.14;89.68
19795;BME280;10057;59.402;17.866;2024-02-23T05:21:25;98410.94;;;4.15;89.80
19795;BME280;10057;59.402;17.866;2024-02-23T05:23:52;98407.47;;;4.15;89.88
19795;BME280;10057;59.402;17.866;2024-02-23T05:26:19;98391.75;;;4.15;89.70
19795;BME280;10057;59.402;17.866;2024-02-23T05:28:46;98390.75;;;4.17;89.85
19795;BME280;10057;59.402;17.866;2024-02-23T05:31:13;98382.88;;;4.17;89.99
19795;BME280;10057;59.402;17.866;2024-02-23T05:33:40;98378.47;;;4.18;89.72
19795;BME280;10057;59.402;17.866;2024-02-23T05:36:07;98378.38;;;4.19;89.95
19795;BME280;10057;59.402;17.866;2024-02-23T05:38:34;98381.00;;;4.19;90.06
19795;BME280;10057;59.402;17.866;2024-02-23T05:41:01;98375.75;;;4.19;89.75
19795;BME280;10057;59.402;17.866;2024-02-23T05:43:28;98367.75;;;4.22;89.99
19795;BME280;10057;59.402;17.866;2024-02-23T05:45:54;98367.75;;;4.22;89.86
19795;BME280;10057;59.402;17.866;2024-02-23T05:48:23;98363.44;;;4.21;89.96
19795;BME280;10057;59.402;17.866;2024-02-23T05:50:50;98348.44;;;4.23;89.81
19795;BME280;10057;59.402;17.866;2024-02-23T05:53:17;98353.69;;;4.23;90.21
19795;BME280;10057;59.402;17.866;2024-02-23T05:55:43;98342.19;;;4.26;89.81
19795;BME280;10057;59.402;17.866;2024-02-23T05:58:10;98343.03;;;4.26;90.25
19795;BME280;10057;59.402;17.866;2024-02-23T06:00:37;98350.00;;;4.27;89.78
19795;BME280;10057;59.402;17.866;2024-02-23T06:03:04;98338.63;;;4.27;90.32
19795;BME280;10057;59.402;17.866;2024-02-23T06:05:30;98329.00;;;4.27;89.91
19795;BME280;10057;59.402;17.866;2024-02-23T06:07:57;98334.25;;;4.27;90.16
19795;BME280;10057;59.402;17.866;2024-02-23T06:10:24;98317.63;;;4.27;89.93
19795;BME280;10057;59.402;17.866;2024-02-23T06:12:51;98321.91;;;4.30;90.37
19795;BME280;10057;59.402;17.866;2024-02-23T06:15:21;98310.47;;;4.31;90.28
19795;BME280;10057;59.402;17.866;2024-02-23T06:17:48;98305.16;;;4.32;89.99
19795;BME280;10057;59.402;17.866;2024-02-23T06:20:15;98308.63;;;4.33;90.37
19795;BME280;10057;59.402;17.866;2024-02-23T06:22:42;98298.06;;;4.34;90.14
19795;BME280;10057;59.402;17.866;2024-02-23T06:25:09;98287.47;;;4.36;90.38
19795;BME280;10057;59.402;17.866;2024-02-23T06:27:36;98270.78;;;4.37;90.49
19795;BME280;10057;59.402;17.866;2024-02-23T06:30:04;98265.38;;;4.40;90.00
19795;BME280;10057;59.402;17.866;2024-02-23T06:32:31;98251.16;;;4.44;90.59
19795;BME280;10057;59.402;17.866;2024-02-23T06:34:58;98250.16;;;4.46;90.24
19795;BME280;10057;59.402;17.866;2024-02-23T06:37:26;98258.13;;;4.45;90.36
19795;BME280;10057;59.402;17.866;2024-02-23T06:39:53;98265.06;;;4.46;90.61
19795;BME280;10057;59.402;17.866;2024-02-23T06:42:21;98255.25;;;4.49;90.51
19795;BME280;10057;59.402;17.866;2024-02-23T06:44:48;98261.19;;;4.53;90.26
19795;BME280;10057;59.402;17.866;2024-02-23T06:47:15;98266.44;;;4.53;90.74
19795;BME280;10057;59.402;17.866;2024-02-23T06:49:42;98253.16;;;4.56;90.47
19795;BME280;10057;59.402;17.866;2024-02-23T06:52:10;98265.19;;;4.60;90.91
19795;BME280;10057;59.402;17.866;2024-02-23T06:54:37;98265.13;;;4.62;90.65
19795;BME280;10057;59.402;17.866;2024-02-23T06:57:04;98258.00;;;4.64;90.39
19795;BME280;10057;59.402;17.866;2024-02-23T06:59:30;98257.06;;;4.65;90.08
19795;BME280;10057;59.402;17.866;2024-02-23T07:01:58;98254.38;;;4.66;90.19
19795;BME280;10057;59.402;17.866;2024-02-23T07:04:25;98253.44;;;4.67;90.66
19795;BME280;10057;59.402;17.866;2024-02-23T07:06:52;98248.19;;;4.67;90.15
19795;BME280;10057;59.402;17.866;2024-02-23T07:09:19;98249.97;;;4.67;90.18
19795;BME280;10057;59.402;17.866;2024-02-23T07:11:45;98248.13;;;4.69;90.50
19795;BME280;10057;59.402;17.866;2024-02-23T07:14:12;98261.25;;;4.69;90.62
19795;BME280;10057;59.402;17.866;2024-02-23T07:16:40;98250.75;;;4.69;90.38
19795;BME280;10057;59.402;17.866;2024-02-23T07:19:07;98266.41;;;4.70;90.72
19795;BME280;10057;59.402;17.866;2024-02-23T07:21:35;98234.06;;;4.70;90.64
19795;BME280;10057;59.402;17.866;2024-02-23T07:24:02;98232.28;;;4.70;91.01
19795;BME280;10057;59.402;17.866;2024-02-23T07:26:28;98233.97;;;4.71;90.14
19795;BME280;10057;59.402;17.866;2024-02-23T07:28:56;98235.69;;;4.72;90.83
19795;BME280;10057;59.402;17.866;2024-02-23T07:31:22;98239.06;;;4.74;90.68
19795;BME280;10057;59.402;17.866;2024-02-23T07:33:49;98240.78;;;4.75;90.89
19795;BME280;10057;59.402;17.866;2024-02-23T07:36:18;98226.69;;;4.77;90.94
19795;BME280;10057;59.402;17.866;2024-02-23T07:38:45;98227.53;;;4.77;90.86
19795;BME280;10057;59.402;17.866;2024-02-23T07:41:11;98223.13;;;4.78;90.58
19795;BME280;10057;59.402;17.866;2024-02-23T07:43:39;98225.59;;;4.81;90.55
19795;BME280;10057;59.402;17.866;2024-02-23T07:46:06;98215.88;;;4.83;90.42
19795;BME280;10057;59.402;17.866;2024-02-23T07:48:35;98207.06;;;4.84;90.60
19795;BME280;10057;59.402;17.866;2024-02-23T07:51:03;98195.53;;;5.02;90.81
19795;BME280;10057;59.402;17.866;2024-02-23T07:53:31;98204.88;;;5.23;89.94
19795;BME280;10057;59.402;17.866;2024-02-23T07:55:59;98191.56;;;5.27;89.59
19795;BME280;10057;59.402;17.866;2024-02-23T07:58:29;98183.19;;;5.20;89.93
19795;BME280;10057;59.402;17.866;2024-02-23T08:00:55;98187.75;;;5.16;89.97
19795;BME280;10057;59.402;17.866;2024-02-23T08:03:23;98180.13;;;5.12;89.89
19795;BME280;10057;59.402;17.866;2024-02-23T08:05:50;98167.16;;;5.09;90.42
19795;BME280;10057;59.402;17.866;2024-02-23T08:08:16;98169.09;;;5.05;90.40
19795;BME280;10057;59.402;17.866;2024-02-23T08:10:44;98165.72;;;5.03;90.49
19795;BME280;10057;59.402;17.866;2024-02-23T08:13:10;98170.19;;;5.01;90.76
19795;BME280;10057;59.402;17.866;2024-02-23T08:15:37;98167.75;;;4.98;90.66
19795;BME280;10057;59.402;17.866;2024-02-23T08:18:04;98158.91;;;4.99;90.74
19795;BME280;10057;59.402;17.866;2024-02-23T08:20:31;98143.16;;;4.99;90.80
19795;BME280;10057;59.402;17.866;2024-02-23T08:22:57;98134.34;;;5.00;91.10
19795;BME280;10057;59.402;17.866;2024-02-23T08:25:24;98131.72;;;5.00;90.62
19795;BME280;10057;59.402;17.866;2024-02-23T08:27:51;98157.16;;;4.99;90.41
19795;BME280;10057;59.402;17.866;2024-02-23T08:30:18;98159.78;;;4.99;90.47
19795;BME280;10057;59.402;17.866;2024-02-23T08:32:46;98131.78;;;4.98;90.33
19795;BME280;10057;59.402;17.866;2024-02-23T08:35:13;98146.72;;;4.98;90.40
19795;BME280;10057;59.402;17.866;2024-02-23T08:37:41;98138.09;;;4.96;90.55
19795;BME280;10057;59.402;17.866;2024-02-23T08:40:09;98124.97;;;4.96;90.48
19795;BME280;10057;59.402;17.866;2024-02-23T08:42:36;98124.97;;;4.96;90.52
19795;BME280;10057;59.402;17.866;2024-02-23T08:45:03;98135.47;;;4.96;90.63
19795;BME280;10057;59.402;17.866;2024-02-23T08:47:30;98118.75;;;4.97;90.86
19795;BME280;10057;59.402;17.866;2024-02-23T08:50:02;98124.03;;;4.97;90.38
19795;BME280;10057;59.402;17.866;2024-02-23T08:52:29;98124.97;;;4.96;90.45
19795;BME280;10057;59.402;17.866;2024-02-23T08:54:56;98128.34;;;4.98;91.02
19795;BME280;10057;59.402;17.866;2024-02-23T08:57:23;98134.53;;;4.97;91.11
19795;BME280;10057;59.402;17.866;2024-02-23T08:59:50;98144.09;;;4.98;90.57
19795;BME280;10057;59.402;17.866;2024-02-23T09:02:16;98146.72;;;4.98;90.52
19795;BME280;10057;59.402;17.866;2024-02-23T09:04:43;98143.16;;;4.99;90.46
19795;BME280;10057;59.402;17.866;2024-02-23T09:07:12;98139.78;;;4.97;90.56
19795;BME280;10057;59.402;17.866;2024-02-23T09:09:39;98134.44;;;4.98;90.62
19795;BME280;10057;59.402;17.866;2024-02-23T09:12:06;98140.47;;;5.01;90.59
19795;BME280;10057;59.402;17.866;2024-02-23T09:14:37;98147.31;;;5.03;91.32
19795;BME280;10057;59.402;17.866;2024-02-23T09:17:08;98149.13;;;5.03;91.26
19795;BME280;10057;59.402;17.866;2024-02-23T09:19:36;98157.16;;;4.99;90.45
19795;BME280;10057;59.402;17.866;2024-02-23T09:22:05;98158.06;;;4.98;91.17
19795;BME280;10057;59.402;17.866;2024-02-23T09:24:32;98161.53;;;4.99;90.90
19795;BME280;10057;59.402;17.866;2024-02-23T09:26:59;98158.91;;;4.99;90.48
19795;BME280;10057;59.402;17.866;2024-02-23T09:29:26;98166.91;;;4.97;90.74
19795;BME280;10057;59.402;17.866;2024-02-23T09:31:52;98152.06;;;4.96;91.13
19795;BME280;10057;59.402;17.866;2024-02-23T09:34:19;98143.34;;;4.96;90.98
19795;BME280;10057;59.402;17.866;2024-02-23T09:36:46;98132.84;;;4.96;91.22
19795;BME280;10057;59.402;17.866;2024-02-23T09:39:15;98140.72;;;4.96;90.79
19795;BME280;10057;59.402;17.866;2024-02-23T09:41:42;98133.59;;;4.98;90.98
19795;BME280;10057;59.402;17.866;2024-02-23T09:44:09;98128.16;;;5.01;91.00
19795;BME280;10057;59.402;17.866;2024-02-23T09:46:36;98130.72;;;5.03;90.96
19795;BME280;10057;59.402;17.866;2024-02-23T09:49:04;98145.72;;;5.01;91.06
19795;BME280;10057;59.402;17.866;2024-02-23T09:51:33;98148.25;;;5.02;90.50
19795;BME280;10057;59.402;17.866;2024-02-23T09:54:02;98134.19;;;5.03;91.17
19795;BME280;10057;59.402;17.866;2024-02-23T09:56:29;98138.50;;;5.04;90.82
19795;BME280;10057;59.402;17.866;2024-02-23T09:59:00;98163.00;;;5.05;90.97
19795;BME280;10057;59.402;17.866;2024-02-23T10:01:29;98162.16;;;5.04;91.05
19795;BME280;10057;59.402;17.866;2024-02-23T10:04:01;98167.50;;;5.03;90.81
19795;BME280;10057;59.402;17.866;2024-02-23T10:06:30;98162.25;;;5.03;90.92
19795;BME280;10057;59.402;17.866;2024-02-23T10:08:56;98177.06;;;5.04;90.97
19795;BME280;10057;59.402;17.866;2024-02-23T10:11:24;98180.53;;;5.04;90.59
19795;BME280;10057;59.402;17.866;2024-02-23T10:13:52;98177.81;;;5.06;90.81
19795;BME280;10057;59.402;17.866;2024-02-23T10:16:19;98189.00;;;5.09;90.77
19795;BME280;10057;59.402;17.866;2024-02-23T10:18:49;98193.34;;;5.10;90.77
19795;BME280;10057;59.402;17.866;2024-02-23T10:21:16;98194.25;;;5.09;90.96
19795;BME280;10057;59.402;17.866;2024-02-23T10:23:47;98199.53;;;5.09;90.93
19795;BME280;10057;59.402;17.866;2024-02-23T10:26:14;98195.03;;;5.11;91.10
19795;BME280;10057;59.402;17.866;2024-02-23T10:28:46;98195.88;;;5.12;91.03
19795;BME280;10057;59.402;17.866;2024-02-23T10:31:13;98197.41;;;5.16;90.88
19795;BME280;10057;59.402;17.866;2024-02-23T10:33:41;98209.53;;;5.18;90.79
19795;BME280;10057;59.402;17.866;2024-02-23T10:36:08;98198.00;;;5.21;90.97
19795;BME280;10057;59.402;17.866;2024-02-23T10:38:38;98212.78;;;5.23;90.62
19795;BME280;10057;59.402;17.866;2024-02-23T10:41:10;98214.56;;;5.23;91.05
19795;BME280;10057;59.402;17.866;2024-02-23T10:43:46;98210.97;;;5.24;91.06
19795;BME280;10057;59.402;17.866;2024-02-23T10:46:14;98230.22;;;5.25;90.90
19795;BME280;10057;59.402;17.866;2024-02-23T10:48:42;98238.13;;;5.25;90.81
19795;BME280;10057;59.402;17.866;2024-02-23T10:51:12;98238.88;;;5.27;90.89
19795;BME280;10057;59.402;17.866;2024-02-23T10:53:45;98252.72;;;5.30;90.78
19795;BME280;10057;59.402;17.866;2024-02-23T10:56:13;98234.97;;;5.34;91.47
19795;BME280;10057;59.402;17.866;2024-02-23T10:58:39;98247.75;;;5.40;90.87
19795;BME280;10057;59.402;17.866;2024-02-23T11:01:07;98245.75;;;5.45;91.30
19795;BME280;10057;59.402;17.866;2024-02-23T11:03:36;98252.44;;;5.51;91.42
19795;BME280;10057;59.402;17.866;2024-02-23T11:06:07;98261.09;;;5.53;90.46
19795;BME280;10057;59.402;17.866;2024-02-23T11:08:35;98255.75;;;5.54;90.70
19795;BME280;10057;59.402;17.866;2024-02-23T11:11:08;98264.38;;;5.56;91.05
19795;BME280;10057;59.402;17.866;2024-02-23T11:13:39;98280.84;;;5.60;90.63
19795;BME280;10057;59.402;17.866;2024-02-23T11:16:08;98271.84;;;5.64;91.05
19795;BME280;10057;59.402;17.866;2024-02-23T11:18:39;98280.41;;;5.67;91.01
19795;BME280;10057;59.402;17.866;2024-02-23T11:21:09;98283.53;;;5.74;91.04
19795;BME280;10057;59.402;17.866;2024-02-23T11:23:41;98290.94;;;5.83;90.99
19795;BME280;10057;59.402;17.866;2024-02-23T11:26:10;98279.94;;;5.92;90.83
19795;BME280;10057;59.402;17.866;2024-02-23T11:28:50;98300.34;;;6.03;90.97
19795;BME280;10057;59.402;17.866;2024-02-23T11:31:23;98297.94;;;6.14;90.90
19795;BME280;10057;59.402;17.866;2024-02-23T11:33:54;98300.06;;;6.24;91.07
19795;BME280;10057;59.402;17.866;2024-02-23T11:36:28;98302.34;;;6.30;90.52
19795;BME280;10057;59.402;17.866;2024-02-23T11:38:57;98308.28;;;6.33;90.47
19795;BME280;10057;59.402;17.866;2024-02-23T11:41:25;98320.31;;;6.37;90.56
19795;BME280;10057;59.402;17.866;2024-02-23T11:43:53;98300.94;;;6.38;90.63
19795;BME280;10057;59.402;17.866;2024-02-23T11:46:21;98303.56;;;6.38;90.50
19795;BME280;10057;59.402;17.866;2024-02-23T11:48:48;98313.84;;;6.43;90.19
19795;BME280;10057;59.402;17.866;2024-02-23T11:51:23;98315.53;;;6.44;90.52
19795;BME280;10057;59.402;17.866;2024-02-23T11:53:50;98318.94;;;6.46;90.40
19795;BME280;10057;59.402;17.866;2024-02-23T11:56:18;98338.13;;;6.48;90.23
19795;BME280;10057;59.402;17.866;2024-02-23T11:58:46;98327.41;;;6.51;90.33
19795;BME280;10057;59.402;17.866;2024-02-23T12:01:13;98334.28;;;6.54;90.44
19795;BME280;10057;59.402;17.866;2024-02-23T12:03:40;98328.06;;;6.55;90.59
19795;BME280;10057;59.402;17.866;2024-02-23T12:06:08;98341.16;;;6.56;90.27
19795;BME280;10057;59.402;17.866;2024-02-23T12:08:36;98332.16;;;6.60;90.80
19795;BME280;10057;59.402;17.866;2024-02-23T12:11:07;98341.72;;;6.61;90.30
19795;BME280;10057;59.402;17.866;2024-02-23T12:13:36;98354.06;;;6.61;90.26
19795;BME280;10057;59.402;17.866;2024-02-23T12:16:02;98369.75;;;6.62;90.13
19795;BME280;10057;59.402;17.866;2024-02-23T12:18:29;98370.59;;;6.63;90.29
19795;BME280;10057;59.402;17.866;2024-02-23T12:21:04;98388.38;;;6.59;90.14
19795;BME280;10057;59.402;17.866;2024-02-23T12:23:43;98404.13;;;6.61;90.20
19795;BME280;10057;59.402;17.866;2024-02-23T12:26:12;98404.00;;;6.62;90.27
19795;BME280;10057;59.402;17.866;2024-02-23T12:28:40;98394.06;;;6.68;90.64
19795;BME280;10057;59.402;17.866;2024-02-23T12:31:07;98408.75;;;6.72;90.44
19795;BME280;10057;59.402;17.866;2024-02-23T12:33:35;98412.16;;;6.74;90.70
19795;BME280;10057;59.402;17.866;2024-02-23T12:36:04;98406.50;;;6.80;90.96
19795;BME280;10057;59.402;17.866;2024-02-23T12:38:31;98414.91;;;6.86;90.49
19795;BME280;10057;59.402;17.866;2024-02-23T12:40:59;98428.56;;;6.93;90.68
19795;BME280;10057;59.402;17.866;2024-02-23T12:43:26;98431.03;;;6.96;90.57
19795;BME280;10057;59.402;17.866;2024-02-23T12:45:53;98439.72;;;6.98;90.12
19795;BME280;10057;59.402;17.866;2024-02-23T12:48:23;98445.72;;;7.00;90.35
19795;BME280;10057;59.402;17.866;2024-02-23T12:50:51;98436.91;;;7.01;90.31
19795;BME280;10057;59.402;17.866;2024-02-23T12:53:37;98446.56;;;7.01;89.98
19795;BME280;10057;59.402;17.866;2024-02-23T12:56:10;98445.91;;;6.97;89.96
19795;BME280;10057;59.402;17.866;2024-02-23T12:58:39;98441.56;;;6.96;90.02
19795;BME280;10057;59.402;17.866;2024-02-23T13:01:06;98459.28;;;6.94;89.98